Time;durP1;ratioP1;P1;durP2;ratioP2;P2;SDS_P1;SDS_P2;PMS_P1;PMS_P2;Temp;Humidity;BMP_temperature;BMP_pressure;BME280_temperature;BME280_humidity;BME280_pressure;Samples;Min_cycle;Max_cycle;Signal;HPM_P1;HPM_P2
2023/12/16 00:00:57;;;;;;;6.97;2.53;;;;;;;7.12;93.01;103854.97;5176891;27;20045;-76
2023/12/16 00:03:28;;;;;;;6.70;2.13;;;;;;;7.12;92.78;103860.28;5174822;27;20039;-76
2023/12/16 00:05:54;;;;;;;6.15;2.42;;;;;;;7.12;92.59;103862.94;5171904;27;20575;-76
2023/12/16 00:08:24;;;;;;;13.20;2.50;;;;;;;7.13;92.86;103858.41;5173477;27;20432;-76
2023/12/16 00:10:51;;;;;;;9.40;2.35;;;;;;;7.11;92.21;103852.66;5171209;27;20559;-76
2023/12/16 00:13:21;;;;;;;9.82;2.10;;;;;;;7.10;92.11;103851.13;5170949;27;20133;-76
2023/12/16 00:15:49;;;;;;;4.15;1.90;;;;;;;7.09;91.80;103853.00;5138276;27;20491;-76
2023/12/16 00:18:15;;;;;;;7.32;2.38;;;;;;;7.09;92.05;103855.66;5174332;27;20120;-75
2023/12/16 00:20:42;;;;;;;9.50;2.17;;;;;;;7.11;91.99;103863.25;5174464;27;20039;-76
2023/12/16 00:23:09;;;;;;;8.48;2.25;;;;;;;7.09;91.74;103854.88;5174899;27;20043;-76
2023/12/16 00:25:35;;;;;;;9.10;2.63;;;;;;;7.08;91.55;103869.25;5155584;27;20050;-76
2023/12/16 00:28:02;;;;;;;7.75;2.08;;;;;;;7.07;91.71;103868.47;5177198;27;20046;-75
2023/12/16 00:30:28;;;;;;;11.02;2.50;;;;;;;7.07;92.02;103865.06;5178112;27;20039;-75
2023/12/16 00:32:55;;;;;;;9.85;3.40;;;;;;;7.05;91.83;103861.97;5156465;27;20513;-75
2023/12/16 00:35:21;;;;;;;9.73;2.63;;;;;;;7.06;92.00;103863.50;5178036;27;20497;-76
2023/12/16 00:37:48;;;;;;;7.40;2.38;;;;;;;7.08;91.98;103863.94;5177455;27;20046;-76
2023/12/16 00:40:15;;;;;;;5.40;2.00;;;;;;;7.05;91.96;103870.69;5158845;27;20490;-76
2023/12/16 00:42:41;;;;;;;7.60;2.38;;;;;;;7.03;91.86;103862.31;5159689;27;20100;-76
2023/12/16 00:45:08;;;;;;;9.18;2.00;;;;;;;7.01;91.23;103861.88;5178449;27;20978;-75
2023/12/16 00:47:36;;;;;;;10.70;2.30;;;;;;;7.01;91.60;103867.94;5177380;27;20814;-76
2023/12/16 00:50:04;;;;;;;13.15;2.28;;;;;;;7.01;91.36;103860.00;5178256;27;20570;-76
2023/12/16 00:52:31;;;;;;;6.28;2.15;;;;;;;7.01;91.80;103856.56;5177385;27;20043;-76
2023/12/16 00:54:58;;;;;;;4.95;2.47;;;;;;;7.00;91.80;103855.03;5178626;27;20046;-76
2023/12/16 00:57:25;;;;;;;6.18;2.08;;;;;;;6.97;91.84;103845.88;5177166;27;20477;-76
2023/12/16 00:59:51;;;;;;;6.90;2.08;;;;;;;6.93;91.39;103839.72;5177642;27;20071;-76
2023/12/16 01:02:18;;;;;;;6.97;1.80;;;;;;;6.90;91.34;103836.97;5177956;27;20117;-76
2023/12/16 01:04:45;;;;;;;9.45;1.83;;;;;;;6.84;91.27;103833.03;5158461;27;20047;-75
2023/12/16 01:07:11;;;;;;;11.85;1.73;;;;;;;6.79;91.40;103830.66;5174818;27;20049;-75
2023/12/16 01:09:38;;;;;;;9.30;2.50;;;;;;;6.74;91.93;103834.31;5175474;27;20039;-75
2023/12/16 01:12:05;;;;;;;5.82;1.80;;;;;;;6.68;92.01;103838.31;5158889;27;20521;-75
2023/12/16 01:14:32;;;;;;;10.93;2.38;;;;;;;6.65;92.28;103838.97;5177669;27;20125;-75
2023/12/16 01:16:58;;;;;;;9.88;2.22;;;;;;;6.62;92.47;103842.28;5177698;27;20047;-75
2023/12/16 01:19:26;;;;;;;8.98;2.10;;;;;;;6.59;92.67;103840.31;5177305;27;20555;-76
2023/12/16 01:21:53;;;;;;;12.27;2.63;;;;;;;6.55;92.96;103834.16;5177279;27;20051;-75
2023/12/16 01:24:21;;;;;;;6.15;1.85;;;;;;;6.53;93.14;103836.38;5139169;27;20072;-76
2023/12/16 01:26:47;;;;;;;14.07;2.72;;;;;;;6.50;93.20;103842.31;5159181;27;20760;-76
2023/12/16 01:29:14;;;;;;;9.20;2.58;;;;;;;6.47;93.33;103833.19;5177203;27;20567;-76
2023/12/16 01:31:41;;;;;;;10.10;2.00;;;;;;;6.45;93.52;103821.38;5140638;27;20134;-75
2023/12/16 01:34:07;;;;;;;10.65;2.58;;;;;;;6.42;93.86;103822.81;5177448;27;20518;-75
2023/12/16 01:36:34;;;;;;;5.40;1.98;;;;;;;6.39;93.92;103822.75;5177159;27;20126;-75
2023/12/16 01:39:00;;;;;;;10.75;2.58;;;;;;;6.37;94.10;103833.66;5176654;27;20134;-75
2023/12/16 01:41:27;;;;;;;7.47;2.50;;;;;;;6.36;94.20;103845.34;5177130;27;20043;-75
2023/12/16 01:43:54;;;;;;;9.90;2.38;;;;;;;6.31;94.06;103838.41;5178052;27;20424;-76
2023/12/16 01:46:21;;;;;;;11.18;2.30;;;;;;;6.29;94.79;103845.91;5176917;27;20521;-76
2023/12/16 01:48:48;;;;;;;6.75;2.70;;;;;;;6.28;94.72;103843.63;5159120;27;20070;-76
2023/12/16 01:51:15;;;;;;;5.50;2.00;;;;;;;6.25;94.98;103844.28;5176799;27;20558;-76
2023/12/16 01:53:42;;;;;;;11.82;2.42;;;;;;;6.23;95.25;103857.06;5158072;27;20204;-76
2023/12/16 01:56:09;;;;;;;10.98;2.80;;;;;;;6.22;95.50;103858.16;5177446;27;20035;-76
2023/12/16 01:58:38;;;;;;;6.88;2.20;;;;;;;6.19;95.64;103861.47;5173216;27;20043;-75
2023/12/16 02:01:05;;;;;;;8.32;1.85;;;;;;;6.17;95.57;103859.16;5172437;27;20543;-76
2023/12/16 02:03:32;;;;;;;7.55;2.45;;;;;;;6.15;95.76;103865.88;5176398;27;20042;-76
2023/12/16 02:05:59;;;;;;;7.30;2.42;;;;;;;6.13;96.07;103855.63;5177036;27;20513;-75
2023/12/16 02:08:26;;;;;;;11.20;2.47;;;;;;;6.10;96.21;103858.94;5176224;27;20092;-76
2023/12/16 02:10:53;;;;;;;8.02;2.58;;;;;;;6.07;96.27;103862.25;5177123;27;20039;-75
2023/12/16 02:13:19;;;;;;;8.25;2.50;;;;;;;6.05;96.71;103861.81;5157188;27;20070;-76
2023/12/16 02:15:46;;;;;;;8.25;2.42;;;;;;;6.01;96.90;103851.13;5175708;27;20043;-75
2023/12/16 02:18:13;;;;;;;8.75;2.38;;;;;;;6.01;97.08;103847.72;5158156;27;20049;-75
2023/12/16 02:20:39;;;;;;;7.65;2.33;;;;;;;5.98;97.20;103849.19;5176985;27;20413;-76
2023/12/16 02:23:14;;;;;;;11.10;2.65;;;;;;;5.97;97.33;103844.22;5157655;27;20043;-76
2023/12/16 02:25:42;;;;;;;12.07;2.63;;;;;;;5.95;97.46;103838.50;5172823;27;20046;-76
2023/12/16 02:28:10;;;;;;;11.85;3.05;;;;;;;5.94;97.57;103843.00;5172305;27;20049;-75
2023/12/16 02:30:37;;;;;;;10.75;2.67;;;;;;;5.92;97.82;103837.28;5175981;27;20074;-76
2023/12/16 02:33:04;;;;;;;10.05;2.42;;;;;;;5.88;97.87;103852.22;5157627;27;20047;-76
2023/12/16 02:35:31;;;;;;;9.65;2.70;;;;;;;5.87;98.44;103844.63;5176680;27;20129;-76
2023/12/16 02:37:57;;;;;;;7.28;2.63;;;;;;;5.84;98.54;103846.06;5175875;27;20046;-76
2023/12/16 02:40:24;;;;;;;10.98;3.05;;;;;;;5.82;98.39;103831.63;5139034;27;20600;-75
2023/12/16 02:42:51;;;;;;;6.55;3.00;;;;;;;5.80;98.80;103833.81;5157418;27;20565;-76
2023/12/16 02:45:18;;;;;;;5.65;2.53;;;;;;;5.79;99.21;103840.22;5157845;27;20406;-75
2023/12/16 02:47:44;;;;;;;11.18;2.70;;;;;;;5.76;99.35;103836.34;5157066;27;20137;-76
2023/12/16 02:50:11;;;;;;;13.73;3.30;;;;;;;5.75;99.37;103839.34;5171122;27;20082;-76
2023/12/16 02:52:38;;;;;;;16.77;3.08;;;;;;;5.74;99.40;103833.28;5175999;27;20043;-76
2023/12/16 02:55:05;;;;;;;7.68;3.08;;;;;;;5.72;99.80;103835.47;5175640;27;20117;-75
2023/12/16 02:57:31;;;;;;;6.93;2.90;;;;;;;5.70;99.79;103830.50;5156202;27;20597;-75
2023/12/16 02:59:58;;;;;;;14.63;3.40;;;;;;;5.67;99.78;103819.84;5157175;27;20051;-76
2023/12/16 03:02:24;;;;;;;8.18;2.60;;;;;;;5.66;100.00;103829.63;5156945;27;20072;-75
2023/12/16 03:04:52;;;;;;;9.77;3.22;;;;;;;5.66;100.00;103836.78;5175703;27;20117;-75
2023/12/16 03:07:18;;;;;;;10.52;3.15;;;;;;;5.65;100.00;103829.97;5156672;27;20478;-75
2023/12/16 03:09:45;;;;;;;8.63;2.80;;;;;;;5.64;100.00;103823.91;5175566;27;20043;-75
2023/12/16 03:12:12;;;;;;;12.68;3.25;;;;;;;5.65;100.00;103824.69;5156566;27;20088;-75
2023/12/16 03:14:41;;;;;;;11.05;3.25;;;;;;;5.66;100.00;103815.66;5175143;27;20062;-76
2023/12/16 03:17:08;;;;;;;10.93;3.22;;;;;;;5.65;100.00;103814.88;5175380;27;20142;-75
2023/12/16 03:19:34;;;;;;;8.15;3.00;;;;;;;5.65;100.00;103812.22;5176047;27;20049;-75
2023/12/16 03:22:01;;;;;;;11.70;3.42;;;;;;;5.65;100.00;103817.53;5176006;27;20049;-75
2023/12/16 03:24:28;;;;;;;7.82;3.08;;;;;;;5.66;100.00;103813.78;5174866;27;20489;-75
2023/12/16 03:26:55;;;;;;;7.32;2.88;;;;;;;5.66;100.00;103810.34;5175038;27;20533;-74
2023/12/16 03:29:21;;;;;;;10.20;3.88;;;;;;;5.67;100.00;103814.53;5157227;27;20038;-74
2023/12/16 03:31:49;;;;;;;11.05;3.22;;;;;;;5.66;100.00;103813.00;5176033;27;20039;-74
2023/12/16 03:34:15;;;;;;;14.73;3.33;;;;;;;5.65;100.00;103801.66;5175056;27;20092;-75
2023/12/16 03:36:42;;;;;;;9.77;3.53;;;;;;;5.65;100.00;103799.00;5157130;27;20043;-74
2023/12/16 03:39:08;;;;;;;14.10;3.97;;;;;;;5.65;100.00;103791.09;5175853;27;20039;-74
2023/12/16 03:41:35;;;;;;;12.85;3.90;;;;;;;5.64;100.00;103781.63;5156084;27;20042;-74
2023/12/16 03:44:02;;;;;;;14.52;3.50;;;;;;;5.65;100.00;103791.09;5175609;27;20043;-74
2023/12/16 03:46:28;;;;;;;11.73;4.05;;;;;;;5.64;100.00;103789.53;5175643;27;20043;-74
2023/12/16 03:48:55;;;;;;;12.90;3.92;;;;;;;5.66;100.00;103794.50;5176779;27;20095;-74
2023/12/16 03:51:23;;;;;;;13.27;4.50;;;;;;;5.65;100.00;103796.38;5177516;27;20046;-74
2023/12/16 03:53:49;;;;;;;12.82;3.53;;;;;;;5.65;100.00;103796.38;5172054;27;20099;-74
2023/12/16 03:56:16;;;;;;;17.08;4.22;;;;;;;5.64;100.00;103802.75;5175269;27;20477;-74
2023/12/16 03:58:43;;;;;;;10.77;3.67;;;;;;;5.64;100.00;103810.69;5174993;27;20041;-75
2023/12/16 04:01:13;;;;;;;16.10;4.10;;;;;;;5.65;100.00;103795.59;5175779;27;20051;-75
2023/12/16 04:03:40;;;;;;;6.55;3.80;;;;;;;5.65;100.00;103787.66;5179147;27;20096;-75
2023/12/16 04:06:11;;;;;;;10.60;3.42;;;;;;;5.64;100.00;103794.84;5179235;27;20071;-74
2023/12/16 04:08:39;;;;;;;8.30;3.85;;;;;;;5.64;100.00;103800.13;5178853;27;20543;-74
2023/12/16 04:11:06;;;;;;;6.82;4.07;;;;;;;5.64;100.00;103796.69;5178638;27;20047;-75
2023/12/16 04:13:34;;;;;;;12.88;4.70;;;;;;;5.63;100.00;103809.16;5156088;27;20055;-75
2023/12/16 04:16:02;;;;;;;11.77;4.72;;;;;;;5.61;100.00;103813.22;5157443;27;20036;-75
2023/12/16 04:18:29;;;;;;;13.90;4.32;;;;;;;5.59;100.00;103816.22;5157546;27;20039;-75
2023/12/16 04:20:57;;;;;;;12.93;4.72;;;;;;;5.57;100.00;103813.13;5157827;27;20047;-75
2023/12/16 04:23:23;;;;;;;9.20;4.45;;;;;;;5.54;100.00;103816.44;5153213;27;20041;-75
2023/12/16 04:25:50;;;;;;;14.32;4.35;;;;;;;5.52;100.00;103810.72;5153494;27;20076;-74
2023/12/16 04:28:16;;;;;;;17.23;4.10;;;;;;;5.52;100.00;103817.88;5157166;27;20100;-74
2023/12/16 04:30:43;;;;;;;10.25;4.72;;;;;;;5.51;100.00;103814.44;5156600;27;21320;-74
2023/12/16 04:33:10;;;;;;;13.48;4.63;;;;;;;5.51;100.00;103813.69;5157955;27;20046;-74
2023/12/16 04:35:36;;;;;;;18.80;4.93;;;;;;;5.50;100.00;103817.41;5155902;27;20078;-74
2023/12/16 04:38:03;;;;;;;17.33;4.45;;;;;;;5.46;100.00;103825.22;5156801;27;20049;-75
2023/12/16 04:40:29;;;;;;;11.45;5.75;;;;;;;5.44;100.00;103832.72;5157502;27;20074;-74
2023/12/16 04:42:56;;;;;;;12.15;4.35;;;;;;;5.40;100.00;103829.19;5157911;27;20123;-74
2023/12/16 04:45:22;;;;;;;15.15;5.00;;;;;;;5.39;100.00;103835.56;5156221;27;20043;-74
2023/12/16 04:47:49;;;;;;;12.52;4.82;;;;;;;5.35;100.00;103835.44;5156991;27;20047;-74
2023/12/16 04:50:17;;;;;;;18.63;4.72;;;;;;;5.34;100.00;103836.53;5157169;27;20049;-74
2023/12/16 04:52:44;;;;;;;17.33;4.97;;;;;;;5.33;100.00;103836.88;5156782;27;20048;-75
2023/12/16 04:55:10;;;;;;;16.73;4.95;;;;;;;5.30;100.00;103827.72;5155909;27;20114;-75
2023/12/16 04:57:37;;;;;;;13.18;4.70;;;;;;;5.29;100.00;103817.50;5157685;27;20044;-74
2023/12/16 05:00:05;;;;;;;16.80;4.63;;;;;;;5.26;100.00;103808.34;5156730;27;20040;-75
2023/12/16 05:02:31;;;;;;;12.02;4.22;;;;;;;5.26;100.00;103813.63;5150615;27;20047;-75
2023/12/16 05:04:58;;;;;;;14.15;4.80;;;;;;;5.24;100.00;103809.78;5152176;27;20047;-74
2023/12/16 05:07:24;;;;;;;15.38;4.80;;;;;;;5.22;100.00;103804.06;5156056;27;20054;-74
2023/12/16 05:09:51;;;;;;;16.17;5.20;;;;;;;5.21;100.00;103805.16;5156585;27;20082;-74
2023/12/16 05:12:18;;;;;;;10.35;4.53;;;;;;;5.19;100.00;103807.38;5159902;27;20039;-74
2023/12/16 05:15:05;;;;;;;13.68;5.05;;;;;;;5.17;100.00;103801.66;5172663;27;20042;-74
2023/12/16 05:17:32;;;;;;;13.10;4.70;;;;;;;5.15;100.00;103807.25;5173312;27;20125;-75
2023/12/16 05:19:58;;;;;;;17.35;4.97;;;;;;;5.15;100.00;103809.13;5177139;27;20043;-74
2023/12/16 05:22:25;;;;;;;14.20;4.57;;;;;;;5.13;100.00;103800.75;5158607;27;20051;-75
2023/12/16 05:24:52;;;;;;;20.23;5.40;;;;;;;5.14;100.00;103805.72;5177629;27;20045;-74
2023/12/16 05:27:18;;;;;;;17.00;4.65;;;;;;;5.12;100.00;103799.97;5177072;27;20865;-74
2023/12/16 05:29:45;;;;;;;12.60;4.45;;;;;;;5.12;100.00;103799.22;5177855;27;20047;-74
2023/12/16 05:32:11;;;;;;;19.88;5.60;;;;;;;5.11;100.00;103811.66;5175183;27;20042;-74
2023/12/16 05:34:38;;;;;;;13.50;4.25;;;;;;;5.10;100.00;103820.66;5177052;27;20054;-74
2023/12/16 05:37:04;;;;;;;13.43;4.57;;;;;;;5.09;100.00;103815.72;5177241;27;20043;-74
2023/12/16 05:39:31;;;;;;;16.60;4.72;;;;;;;5.06;100.00;103813.72;5173583;27;20087;-74
2023/12/16 05:41:58;;;;;;;17.80;5.03;;;;;;;5.06;100.00;103803.16;5177433;27;20074;-74
2023/12/16 05:44:24;;;;;;;16.33;5.20;;;;;;;5.03;100.00;103813.28;5176475;27;20129;-74
2023/12/16 05:46:51;;;;;;;13.93;4.90;;;;;;;5.03;100.00;103820.41;5176156;27;20520;-74
2023/12/16 05:49:17;;;;;;;18.25;6.32;;;;;;;5.02;100.00;103800.41;5177412;27;20042;-74
2023/12/16 05:51:44;;;;;;;13.48;5.15;;;;;;;5.00;100.00;103802.59;5177204;27;20079;-74
2023/12/16 05:54:11;;;;;;;17.38;5.28;;;;;;;4.99;100.00;103796.53;5176642;27;20125;-74
2023/12/16 05:56:37;;;;;;;13.02;4.90;;;;;;;4.98;100.00;103804.78;5176893;27;20127;-74
2023/12/16 05:59:04;;;;;;;17.05;4.50;;;;;;;4.97;100.00;103808.53;5177066;27;20038;-74
2023/12/16 06:01:30;;;;;;;19.25;4.97;;;;;;;4.96;100.00;103812.25;5157603;27;20043;-74
2023/12/16 06:03:57;;;;;;;16.88;5.18;;;;;;;4.95;100.00;103802.78;5176886;27;20042;-74
2023/12/16 06:06:24;;;;;;;12.55;4.75;;;;;;;4.93;100.00;103810.25;5176647;27;20043;-74
2023/12/16 06:08:53;;;;;;;18.00;5.50;;;;;;;4.91;100.00;103802.66;5177112;27;20527;-74
2023/12/16 06:11:21;;;;;;;13.80;5.60;;;;;;;4.91;100.00;103804.53;5176291;27;20118;-74
2023/12/16 06:13:48;;;;;;;15.95;5.15;;;;;;;4.89;100.00;103796.16;5176363;27;20061;-74
2023/12/16 06:16:17;;;;;;;15.10;4.88;;;;;;;4.89;100.00;103801.44;5176212;27;20043;-74
2023/12/16 06:18:47;;;;;;;;;;;;;;;4.88;100.00;103802.53;5158690;27;20108;-74
2023/12/16 06:21:13;;;;;;;17.55;5.03;;;;;;;4.87;100.00;103793.09;5176414;27;19923;-74
2023/12/16 06:23:40;;;;;;;12.02;4.68;;;;;;;4.88;100.00;103805.19;5157427;27;20072;-74
2023/12/16 06:26:07;;;;;;;14.40;5.47;;;;;;;4.85;100.00;103811.88;5157420;27;20046;-74
2023/12/16 06:28:33;;;;;;;18.48;4.93;;;;;;;4.84;100.00;103810.34;5175963;27;20107;-75
2023/12/16 06:31:00;;;;;;;12.88;5.10;;;;;;;4.82;100.00;103812.53;5176239;27;20039;-76
2023/12/16 06:33:27;;;;;;;19.48;5.38;;;;;;;4.82;100.00;103819.69;5175813;27;20539;-75
2023/12/16 06:35:54;;;;;;;18.35;5.53;;;;;;;4.79;100.00;103825.63;5176921;27;20038;-75
2023/12/16 06:38:20;;;;;;;12.05;4.82;;;;;;;4.79;100.00;103823.00;5175917;27;20046;-75
2023/12/16 06:40:47;;;;;;;12.52;5.75;;;;;;;4.78;100.00;103829.38;5176217;27;20095;-75
2023/12/16 06:43:14;;;;;;;13.55;5.00;;;;;;;4.76;100.00;103818.38;5175742;27;20042;-75
2023/12/16 06:45:41;;;;;;;12.32;4.72;;;;;;;4.76;100.00;103821.78;5172582;27;20476;-75
2023/12/16 06:48:08;;;;;;;17.77;5.30;;;;;;;4.75;100.00;103819.47;5175919;27;20127;-75
2023/12/16 06:50:34;;;;;;;12.55;5.20;;;;;;;4.72;100.00;103818.25;5176482;27;20037;-75
2023/12/16 06:53:01;;;;;;;13.90;5.03;;;;;;;4.72;100.00;103822.75;5177224;27;20050;-75
2023/12/16 06:55:27;;;;;;;13.32;4.75;;;;;;;4.71;100.00;103814.06;5175364;27;20047;-75
2023/12/16 06:57:54;;;;;;;18.65;5.60;;;;;;;4.71;100.00;103815.91;5176257;27;20049;-75
2023/12/16 07:00:20;;;;;;;15.18;5.65;;;;;;;4.71;100.00;103821.97;5175693;27;20133;-76
2023/12/16 07:02:47;;;;;;;14.57;5.00;;;;;;;4.71;100.00;103821.97;5173084;27;20552;-76
2023/12/16 07:05:14;;;;;;;11.75;5.25;;;;;;;4.72;100.00;103822.75;5176110;27;20042;-75
2023/12/16 07:07:40;;;;;;;17.58;5.22;;;;;;;4.70;100.00;103830.97;5175759;27;20034;-75
2023/12/16 07:10:08;;;;;;;20.48;5.70;;;;;;;4.69;100.00;103814.38;5176383;27;20085;-77
2023/12/16 07:12:34;;;;;;;13.82;5.68;;;;;;;4.69;100.00;103818.88;5157103;27;20122;-75
2023/12/16 07:15:01;;;;;;;16.13;5.50;;;;;;;4.69;100.00;103816.25;5175564;27;20539;-76
2023/12/16 07:17:29;;;;;;;13.73;5.80;;;;;;;4.70;100.00;103833.63;5175005;27;20078;-75
2023/12/16 07:19:55;;;;;;;14.55;5.32;;;;;;;4.71;100.00;103827.25;5176775;27;20554;-76
2023/12/16 07:22:22;;;;;;;12.93;4.78;;;;;;;4.71;100.00;103821.97;5176009;27;20125;-74
2023/12/16 07:24:48;;;;;;;16.75;4.63;;;;;;;4.71;100.00;103823.84;5178465;27;20054;-76
2023/12/16 07:27:15;;;;;;;16.77;4.80;;;;;;;4.70;100.00;103830.97;5158481;27;20122;-75
2023/12/16 07:29:42;;;;;;;18.23;4.68;;;;;;;4.72;100.00;103830.66;5177670;27;20053;-76
2023/12/16 07:32:08;;;;;;;19.48;4.25;;;;;;;4.73;100.00;103834.84;5180219;27;20911;-76
2023/12/16 07:34:35;;;;;;;19.63;4.65;;;;;;;4.75;100.00;103830.78;5159851;27;20070;-77
2023/12/16 07:37:03;;;;;;;10.15;4.32;;;;;;;4.76;100.00;103834.19;5176147;27;20100;-74
2023/12/16 07:39:29;;;;;;;13.63;4.47;;;;;;;4.77;100.00;103825.97;5172257;27;20124;-74
2023/12/16 07:41:56;;;;;;;17.55;4.55;;;;;;;4.81;100.00;103832.09;5157994;27;20039;-77
2023/12/16 07:44:22;;;;;;;12.55;4.20;;;;;;;4.84;100.00;103835.97;5176026;27;20577;-75
2023/12/16 07:46:49;;;;;;;16.80;4.85;;;;;;;4.86;100.00;103825.84;5175792;27;20038;-77
2023/12/16 07:49:17;;;;;;;10.35;4.40;;;;;;;4.89;100.00;103830.50;5156970;27;20046;-77
2023/12/16 07:51:44;;;;;;;25.00;5.05;;;;;;;4.90;100.00;103821.47;5157398;27;20481;-77
2023/12/16 07:54:11;;;;;;;23.27;4.20;;;;;;;4.91;100.00;103823.78;5157524;27;20505;-77
2023/12/16 07:56:37;;;;;;;12.40;4.20;;;;;;;4.93;100.00;103832.16;5158217;27;20047;-78
2023/12/16 07:59:04;;;;;;;15.02;4.47;;;;;;;4.94;100.00;103830.28;5181542;27;20393;-77
2023/12/16 08:01:30;;;;;;;19.23;5.60;;;;;;;4.95;100.00;103827.31;5178389;27;20047;-78
2023/12/16 08:03:57;;;;;;;16.52;5.15;;;;;;;4.97;100.00;103827.00;5157273;27;20054;-77
2023/12/16 08:06:24;;;;;;;16.80;4.10;;;;;;;4.99;100.00;103832.72;5178475;27;20804;-78
2023/12/16 08:08:50;;;;;;;13.82;4.40;;;;;;;5.01;100.00;103846.38;5178847;27;20138;-78
2023/12/16 08:11:17;;;;;;;21.75;4.20;;;;;;;5.05;100.00;103843.88;5176352;27;20164;-76
2023/12/16 08:13:43;;;;;;;14.05;4.45;;;;;;;5.07;100.00;103850.38;5175253;27;20525;-76
2023/12/16 08:16:11;;;;;;;17.67;4.18;;;;;;;5.10;100.00;103844.44;5158334;27;20043;-75
2023/12/16 08:18:38;;;;;;;14.40;4.97;;;;;;;5.14;100.00;103847.19;5174839;27;20509;-75
2023/12/16 08:21:04;;;;;;;12.80;4.55;;;;;;;5.16;100.00;103847.66;5175036;27;20046;-75
2023/12/16 08:23:31;;;;;;;12.23;4.25;;;;;;;5.19;100.00;103854.91;5174107;27;20042;-77
2023/12/16 08:25:57;;;;;;;12.82;4.45;;;;;;;5.23;100.00;103853.91;5158431;27;20042;-76
2023/12/16 08:28:24;;;;;;;19.48;5.05;;;;;;;5.27;100.00;103848.75;5175348;27;20077;-76
2023/12/16 08:30:52;;;;;;;15.15;5.05;;;;;;;5.31;100.00;103858.34;5175955;27;20070;-77
2023/12/16 08:33:19;;;;;;;19.30;4.82;;;;;;;5.38;100.00;103855.16;5176025;27;20047;-77
2023/12/16 08:35:46;;;;;;;15.27;4.35;;;;;;;5.48;100.00;103872.47;5176602;27;20042;-76
2023/12/16 08:38:12;;;;;;;26.30;4.93;;;;;;;5.58;100.00;103864.13;5156088;27;20047;-76
2023/12/16 08:40:39;;;;;;;22.15;4.95;;;;;;;5.64;100.00;103868.84;5176142;27;20073;-76
2023/12/16 08:43:06;;;;;;;18.10;4.57;;;;;;;5.68;100.00;103868.94;5175479;27;20053;-76
2023/12/16 08:45:32;;;;;;;13.93;4.78;;;;;;;5.70;100.00;103878.09;5176989;27;20046;-77
2023/12/16 08:47:59;;;;;;;17.15;5.13;;;;;;;5.74;100.00;103878.22;5158305;27;20074;-76
2023/12/16 08:50:27;;;;;;;11.57;4.68;;;;;;;5.78;100.00;103891.53;5174588;27;20244;-77
2023/12/16 08:52:53;;;;;;;14.93;4.53;;;;;;;5.82;100.00;103884.50;5178696;27;20042;-77
2023/12/16 08:55:21;;;;;;;12.10;3.83;;;;;;;5.87;100.00;103898.28;5178220;27;20050;-76
2023/12/16 08:57:48;;;;;;;14.27;4.22;;;;;;;5.92;100.00;103899.97;5178654;27;20054;-78
2023/12/16 09:00:15;;;;;;;11.98;4.00;;;;;;;5.96;100.00;103900.84;5182137;27;20039;-78
2023/12/16 09:02:42;;;;;;;14.45;4.30;;;;;;;5.98;100.00;103893.34;5182606;27;20541;-78
2023/12/16 09:05:08;;;;;;;16.73;4.28;;;;;;;5.99;100.00;103887.75;5146230;27;20042;-77
2023/12/16 09:07:35;;;;;;;14.02;4.32;;;;;;;6.05;100.00;103895.44;5179401;27;20130;-73
2023/12/16 09:10:02;;;;;;;13.10;3.95;;;;;;;6.08;100.00;103903.47;5183290;27;20053;-77
2023/12/16 09:12:28;;;;;;;12.43;3.65;;;;;;;6.11;100.00;103910.75;5179732;27;20051;-77
2023/12/16 09:14:55;;;;;;;17.98;3.92;;;;;;;6.14;100.00;103922.53;5180700;27;20122;-77
2023/12/16 09:17:22;;;;;;;10.25;4.22;;;;;;;6.16;100.00;103917.69;5160688;27;20493;-77
2023/12/16 09:19:48;;;;;;;18.77;4.30;;;;;;;6.20;100.00;103913.28;5159691;27;20043;-77
2023/12/16 09:22:16;;;;;;;15.48;4.70;;;;;;;6.23;100.00;103916.03;5160301;27;20074;-77
2023/12/16 09:24:43;;;;;;;10.85;4.25;;;;;;;6.26;100.00;103915.38;5142608;27;20042;-77
2023/12/16 09:27:09;;;;;;;18.00;4.80;;;;;;;6.31;100.00;103922.31;5159744;27;20045;-77
2023/12/16 09:29:36;;;;;;;15.65;5.75;;;;;;;6.34;100.00;103919.78;5178900;27;20401;-77
2023/12/16 09:32:05;;;;;;;25.33;5.22;;;;;;;6.38;100.00;103929.72;5179365;27;20046;-77
2023/12/16 09:34:31;;;;;;;13.18;5.22;;;;;;;6.42;100.00;103933.19;5160000;27;20067;-77
2023/12/16 09:36:58;;;;;;;17.52;6.40;;;;;;;6.45;100.00;103935.19;5179143;27;20042;-77
2023/12/16 09:39:24;;;;;;;14.43;5.18;;;;;;;6.48;100.00;103937.16;5177717;27;20039;-77
2023/12/16 09:41:52;;;;;;;24.25;6.18;;;;;;;6.52;100.00;103932.75;5159347;27;20042;-77
2023/12/16 09:44:19;;;;;;;16.70;6.18;;;;;;;6.56;100.00;103938.94;5160264;27;20043;-77
2023/12/16 09:46:47;;;;;;;15.13;6.13;;;;;;;6.59;100.00;103933.75;5141867;27;20054;-77
2023/12/16 09:49:15;;;;;;;18.85;6.30;;;;;;;6.63;100.00;103934.63;5158941;27;20511;-77
2023/12/16 09:51:42;;;;;;;19.15;6.38;;;;;;;6.66;100.00;103928.66;5177954;27;20543;-77
2023/12/16 09:54:09;;;;;;;23.75;6.45;;;;;;;6.73;100.00;103932.63;5159452;27;20039;-77
2023/12/16 09:56:39;;;;;;;14.63;5.78;;;;;;;6.75;100.00;103931.19;5159200;27;20517;-77
2023/12/16 09:59:08;;;;;;;21.30;6.47;;;;;;;6.81;100.00;103934.34;5174006;27;20047;-77
2023/12/16 10:01:34;;;;;;;26.23;7.80;;;;;;;6.84;100.00;103928.38;5175403;27;20050;-77
2023/12/16 10:04:01;;;;;;;19.67;6.95;;;;;;;6.89;100.00;103936.06;5178035;27;20137;-77
2023/12/16 10:06:28;;;;;;;27.38;7.28;;;;;;;6.93;100.00;103931.66;5177448;27;20073;-77
2023/12/16 10:08:54;;;;;;;17.27;7.30;;;;;;;6.99;100.00;103925.00;5161562;27;20050;-77
2023/12/16 10:11:21;;;;;;;25.25;6.60;;;;;;;7.05;100.00;103922.91;5165457;27;20100;-77
2023/12/16 10:13:54;;;;;;;26.30;6.75;;;;;;;7.11;100.00;103924.97;5184279;27;20513;-77
2023/12/16 10:16:26;;;;;;;18.25;7.25;;;;;;;7.16;100.00;103930.03;5182787;27;20078;-77
2023/12/16 10:18:57;;;;;;;21.30;7.22;;;;;;;7.24;100.00;103933.63;5164896;27;20027;-77
2023/12/16 10:21:30;;;;;;;21.55;7.30;;;;;;;7.30;100.00;103927.72;5185073;27;20038;-77
2023/12/16 10:23:58;;;;;;;30.55;7.65;;;;;;;7.39;100.00;103921.50;5162453;27;20043;-77
2023/12/16 10:26:25;;;;;;;24.92;7.72;;;;;;;7.43;100.00;103920.50;5181420;27;20469;-77
2023/12/16 10:28:53;;;;;;;24.70;8.27;;;;;;;7.47;100.00;103929.31;5163638;27;20050;-77
2023/12/16 10:31:21;;;;;;;17.65;7.10;;;;;;;7.50;100.00;103936.59;5181468;27;20054;-77
2023/12/16 10:33:48;;;;;;;18.52;7.22;;;;;;;7.52;100.00;103942.31;5178643;27;20541;-77
2023/12/16 10:36:15;;;;;;;16.27;6.28;;;;;;;7.55;100.00;103936.34;5179809;27;20129;-77
2023/12/16 10:38:42;;;;;;;27.50;6.78;;;;;;;7.58;100.00;103930.34;5158577;27;20043;-77
2023/12/16 10:41:10;;;;;;;26.98;8.27;;;;;;;7.59;100.00;103926.59;5177641;27;20042;-77
2023/12/16 10:43:37;;;;;;;20.15;8.85;;;;;;;7.61;100.00;103928.88;5157563;27;20567;-77
2023/12/16 10:46:06;;;;;;;26.27;9.00;;;;;;;7.62;100.00;103923.22;5178626;27;20043;-80
2023/12/16 10:48:34;;;;;;;19.23;8.13;;;;;;;7.66;100.00;103923.31;5177446;27;20122;-79
2023/12/16 10:51:05;;;;;;;21.55;8.00;;;;;;;7.69;100.00;103920.75;5178093;27;20126;-76
2023/12/16 10:53:39;;;;;;;21.00;7.80;;;;;;;7.72;100.00;103919.31;5177420;27;20035;-78
2023/12/16 10:56:29;;;;;;;24.23;9.30;;;;;;;7.74;100.00;103911.00;5158447;27;20550;-77
2023/12/16 10:59:01;;;;;;;21.60;9.23;;;;;;;7.75;100.00;103909.91;5136738;27;20501;-76
2023/12/16 11:01:33;;;;;;;19.25;9.48;;;;;;;7.76;100.00;103909.56;5178213;27;20035;-79
2023/12/16 11:04:10;;;;;;;19.27;8.82;;;;;;;7.79;100.00;103902.78;5160797;27;20046;-77
2023/12/16 11:06:48;;;;;;;24.55;9.32;;;;;;;7.78;100.00;103894.06;5178802;27;20585;-78
2023/12/16 11:09:15;;;;;;;21.83;9.00;;;;;;;7.80;100.00;103899.03;5175618;27;20129;-76
2023/12/16 11:11:44;;;;;;;21.63;8.68;;;;;;;7.80;100.00;103901.69;5172359;27;20768;-77
2023/12/16 11:14:12;;;;;;;31.95;9.40;;;;;;;7.80;100.00;103885.78;5153931;27;20067;-77
2023/12/16 11:17:05;;;;;;;25.00;9.50;;;;;;;7.80;100.00;103891.84;5156516;27;20043;-78
2023/12/16 11:19:38;;;;;;;19.10;9.38;;;;;;;7.80;100.00;103894.50;5142635;27;20112;-77
2023/12/16 11:22:04;;;;;;;22.10;9.38;;;;;;;7.81;100.00;103888.09;5156543;27;20047;-78